createdAt,value
2018-02-09T00:02:08.288Z,82.86
2018-02-09T00:04:36.576Z,83.12
2018-02-09T00:07:04.867Z,82.66
2018-02-09T00:09:33.920Z,82.45
2018-02-09T00:12:02.239Z,82.62
2018-02-09T00:14:30.518Z,82.71
2018-02-09T00:16:58.825Z,82.97
2018-02-09T00:19:27.138Z,83.02
2018-02-09T00:21:55.402Z,83.13
2018-02-09T00:24:23.730Z,82.92
2018-02-09T00:26:52.055Z,82.85
2018-02-09T00:29:21.125Z,82.90
2018-02-09T00:31:49.685Z,82.77
2018-02-09T00:34:17.954Z,82.98
2018-02-09T00:36:46.237Z,83.55
2018-02-09T00:39:14.557Z,83.13
2018-02-09T00:41:43.607Z,83.33
2018-02-09T00:44:11.918Z,83.29
2018-02-09T00:46:40.189Z,82.81
2018-02-09T00:49:08.479Z,82.63
2018-02-09T00:51:38.729Z,82.63
2018-02-09T00:54:07.012Z,82.41
2018-02-09T00:56:35.318Z,83.05
2018-02-09T00:59:03.599Z,83.10
2018-02-09T01:01:31.876Z,83.00
2018-02-09T01:04:00.223Z,82.78
2018-02-09T01:06:28.532Z,82.35
2018-02-09T01:08:56.809Z,82.02
2018-02-09T01:11:25.107Z,82.54
2018-02-09T01:13:53.396Z,82.53
2018-02-09T01:16:21.712Z,82.56
2018-02-09T01:18:50.038Z,82.42
2018-02-09T01:21:18.321Z,82.62
2018-02-09T01:23:46.600Z,82.72
2018-02-09T01:26:14.909Z,82.44
2018-02-09T01:28:43.970Z,81.87
2018-02-09T01:31:12.516Z,81.91
2018-02-09T01:33:40.808Z,81.81
2018-02-09T01:36:09.079Z,81.67
2018-02-09T01:38:37.384Z,81.07
2018-02-09T01:41:05.654Z,81.34
2018-02-09T01:43:33.971Z,81.28
2018-02-09T01:46:03.040Z,81.01
2018-02-09T01:48:31.321Z,81.39
2018-02-09T01:50:59.660Z,80.77
2018-02-09T01:53:27.965Z,80.91
2018-02-09T01:55:56.260Z,81.53
2018-02-09T01:58:24.561Z,81.34
2018-02-09T02:00:53.611Z,81.10
2018-02-09T02:03:22.676Z,81.17
2018-02-09T02:05:50.967Z,81.29
2018-02-09T02:08:19.278Z,81.20
2018-02-09T02:10:47.544Z,81.00
2018-02-09T02:13:15.827Z,80.73
2018-02-09T02:15:44.140Z,81.01
2018-02-09T02:18:13.192Z,81.13
2018-02-09T02:20:41.517Z,81.17
2018-02-09T02:23:10.549Z,80.84
2018-02-09T02:25:38.841Z,80.73
2018-02-09T02:28:07.135Z,80.88
2018-02-09T02:30:35.446Z,80.87
2018-02-09T02:33:04.512Z,80.95
2018-02-09T02:35:32.801Z,80.83
2018-02-09T02:38:01.091Z,80.99
2018-02-09T02:40:29.388Z,81.14
2018-02-09T02:42:57.684Z,81.06
2018-02-09T02:45:26.010Z,81.35
2018-02-09T02:47:54.287Z,80.86
2018-02-09T02:50:22.582Z,81.06
2018-02-09T02:52:50.912Z,80.99
2018-02-09T02:55:19.202Z,81.00
2018-02-09T02:57:47.489Z,81.18
2018-02-09T03:00:15.818Z,81.31
2018-02-09T03:02:44.889Z,81.34
2018-02-09T03:05:13.206Z,80.87
2018-02-09T03:07:42.308Z,80.66
2018-02-09T03:10:10.621Z,81.04
2018-02-09T03:12:38.917Z,80.92
2018-02-09T03:15:07.197Z,80.73
2018-02-09T03:17:35.539Z,81.03
2018-02-09T03:20:03.815Z,80.82
2018-02-09T03:22:32.126Z,80.57
2018-02-09T03:25:00.404Z,80.47
2018-02-09T03:27:28.690Z,80.52
2018-02-09T03:29:57.049Z,80.36
2018-02-09T03:32:25.338Z,80.57
2018-02-09T03:34:53.654Z,81.17
2018-02-09T03:37:21.953Z,81.15
2018-02-09T03:39:50.229Z,80.80
2018-02-09T03:42:18.557Z,81.04
2018-02-09T03:44:46.878Z,81.01
2018-02-09T03:47:15.229Z,80.80
2018-02-09T03:49:44.302Z,81.06
2018-02-09T03:52:12.610Z,80.71
2018-02-09T03:54:41.690Z,80.79
2018-02-09T03:57:09.964Z,80.96
2018-02-09T03:59:38.258Z,81.01
2018-02-09T04:02:07.348Z,81.03
2018-02-09T04:04:35.643Z,81.35
2018-02-09T04:07:04.727Z,81.41
2018-02-09T04:09:33.809Z,81.43
2018-02-09T04:12:02.377Z,81.28
2018-02-09T04:14:30.733Z,81.08
2018-02-09T04:16:59.052Z,81.20
2018-02-09T04:19:27.378Z,81.11
2018-02-09T04:21:55.668Z,80.79
2018-02-09T04:24:23.994Z,80.83
2018-02-09T04:26:52.278Z,81.33
2018-02-09T04:29:21.355Z,81.51
2018-02-09T04:31:49.724Z,81.03
2018-02-09T04:34:18.038Z,81.41
2018-02-09T04:36:47.524Z,81.69
2018-02-09T04:39:15.815Z,82.08
2018-02-09T04:41:44.886Z,82.23
2018-02-09T04:44:13.203Z,81.79
2018-02-09T04:46:42.249Z,81.53
2018-02-09T04:49:10.551Z,81.28
2018-02-09T04:51:38.852Z,81.36
2018-02-09T04:54:07.900Z,81.42
2018-02-09T04:56:36.209Z,81.14
2018-02-09T04:59:04.497Z,80.98
2018-02-09T05:01:33.540Z,81.05
2018-02-09T05:04:01.856Z,81.19
2018-02-09T05:06:30.162Z,80.69
2018-02-09T05:08:59.222Z,80.74
2018-02-09T05:11:27.497Z,80.38
2018-02-09T05:13:55.783Z,80.10
2018-02-09T05:16:24.094Z,79.45
2018-02-09T05:18:53.176Z,78.85
2018-02-09T05:21:22.515Z,79.10
2018-02-09T05:23:50.825Z,79.12
2018-02-09T05:26:19.115Z,79.28
2018-02-09T05:28:47.414Z,79.22
2018-02-09T05:31:15.692Z,79.38
2018-02-09T05:33:44.759Z,79.22
2018-02-09T05:36:13.043Z,79.19
2018-02-09T05:38:41.685Z,78.72
2018-02-09T05:41:09.981Z,78.53
2018-02-09T05:43:38.788Z,78.67
2018-02-09T05:46:07.080Z,78.86
2018-02-09T05:48:35.382Z,77.36
2018-02-09T05:51:03.669Z,76.77
2018-02-09T05:53:31.964Z,76.30
2018-02-09T05:56:00.259Z,76.52
2018-02-09T05:58:28.557Z,76.83
2018-02-09T06:00:56.847Z,77.51
2018-02-09T06:03:25.125Z,76.91
2018-02-09T06:05:53.445Z,77.14
2018-02-09T06:08:21.781Z,76.04
2018-02-09T06:10:50.034Z,76.21
2018-02-09T06:13:18.307Z,75.31
2018-02-09T06:15:46.590Z,75.17
2018-02-09T06:18:14.883Z,75.10
2018-02-09T06:20:43.166Z,75.08
2018-02-09T06:23:11.435Z,74.76
2018-02-09T06:25:39.757Z,75.05
2018-02-09T06:28:08.077Z,74.91
2018-02-09T06:30:36.397Z,74.65
2018-02-09T06:33:04.696Z,74.86
2018-02-09T06:35:33.024Z,74.77
2018-02-09T06:38:01.311Z,74.91
2018-02-09T06:40:29.611Z,75.14
2018-02-09T06:42:57.890Z,74.97
2018-02-09T06:45:26.163Z,74.75
2018-02-09T06:47:55.246Z,75.35
2018-02-09T06:50:23.528Z,75.45
2018-02-09T06:52:51.848Z,75.78
2018-02-09T06:55:20.164Z,75.97
2018-02-09T06:57:52.164Z,76.46
2018-02-09T07:00:20.462Z,76.35
2018-02-09T07:02:48.775Z,76.93
2018-02-09T07:05:17.079Z,76.93
2018-02-09T07:07:45.383Z,76.89
2018-02-09T07:10:13.656Z,77.13
2018-02-09T07:12:42.703Z,77.04
2018-02-09T07:15:11.006Z,77.65
2018-02-09T07:17:39.309Z,77.92
2018-02-09T07:20:07.600Z,77.63
2018-02-09T07:22:35.865Z,77.76
2018-02-09T07:25:04.936Z,77.71
2018-02-09T07:27:33.227Z,77.84
2018-02-09T07:30:01.549Z,77.61
2018-02-09T07:32:29.822Z,77.84
2018-02-09T07:34:58.098Z,77.50
2018-02-09T07:37:26.397Z,77.55
2018-02-09T07:39:54.701Z,77.66
2018-02-09T07:42:22.994Z,77.75
2018-02-09T07:44:51.270Z,77.78
2018-02-09T07:47:20.360Z,77.89
2018-02-09T07:49:48.935Z,78.14
2018-02-09T07:52:17.199Z,77.67
2018-02-09T07:54:45.493Z,77.42
2018-02-09T07:57:13.816Z,77.22
2018-02-09T07:59:42.193Z,77.27
2018-02-09T08:02:10.487Z,77.62
2018-02-09T08:04:38.755Z,78.15
2018-02-09T08:07:07.055Z,77.90
2018-02-09T08:09:35.350Z,77.65
2018-02-09T08:12:03.662Z,77.49
2018-02-09T08:14:31.980Z,77.66
2018-02-09T08:17:00.306Z,78.11
2018-02-09T08:19:28.602Z,77.70
2018-02-09T08:21:57.652Z,77.51
2018-02-09T08:24:25.962Z,77.68
2018-02-09T08:26:54.253Z,77.72
2018-02-09T08:29:22.557Z,77.68
2018-02-09T08:31:50.867Z,78.22
2018-02-09T08:34:19.161Z,77.96
2018-02-09T08:36:47.473Z,77.86
2018-02-09T08:39:15.775Z,77.86
2018-02-09T08:41:44.077Z,77.63
2018-02-09T08:44:12.392Z,77.67
2018-02-09T08:46:40.689Z,78.19
2018-02-09T08:49:09.754Z,78.00
2018-02-09T08:51:38.057Z,78.25
2018-02-09T08:54:06.333Z,78.20
2018-02-09T08:56:34.626Z,78.48
2018-02-09T08:59:02.948Z,78.67
2018-02-09T09:01:31.232Z,78.65
2018-02-09T09:03:59.513Z,78.33
2018-02-09T09:06:27.807Z,78.11
2018-02-09T09:08:56.119Z,78.50
2018-02-09T09:11:24.837Z,78.81
2018-02-09T09:13:53.138Z,78.98
2018-02-09T09:16:21.437Z,78.96
2018-02-09T09:18:49.722Z,78.65
2018-02-09T09:21:18.769Z,78.42
2018-02-09T09:23:47.064Z,78.54
2018-02-09T09:26:15.371Z,79.00
2018-02-09T09:28:43.685Z,78.92
2018-02-09T09:31:11.973Z,78.79
2018-02-09T09:33:40.304Z,79.16
2018-02-09T09:36:09.350Z,79.44
2018-02-09T09:38:37.657Z,79.54
2018-02-09T09:41:05.948Z,79.77
2018-02-09T09:43:34.245Z,80.34
2018-02-09T09:46:02.545Z,80.44
2018-02-09T09:48:30.825Z,80.64
2018-02-09T09:50:59.120Z,80.76
2018-02-09T09:53:27.404Z,81.13
2018-02-09T09:55:55.686Z,81.10
2018-02-09T09:58:24.007Z,81.23
2018-02-09T10:00:52.286Z,82.14
2018-02-09T10:03:20.581Z,82.33
2018-02-09T10:05:48.859Z,82.33
2018-02-09T10:08:17.156Z,82.64
2018-02-09T10:10:45.454Z,82.98
2018-02-09T10:13:13.739Z,82.97
2018-02-09T10:15:42.036Z,83.36
2018-02-09T10:18:10.325Z,83.47
2018-02-09T10:20:38.616Z,83.29
2018-02-09T10:23:07.691Z,83.51
2018-02-09T10:25:35.989Z,83.62
2018-02-09T10:28:05.064Z,83.66
2018-02-09T10:30:33.346Z,83.83
2018-02-09T10:33:02.688Z,83.61
2018-02-09T10:35:30.986Z,83.28
2018-02-09T10:37:59.250Z,83.61
2018-02-09T10:40:27.533Z,83.82
2018-02-09T10:42:55.813Z,83.83
2018-02-09T10:45:24.099Z,83.78
2018-02-09T10:47:52.389Z,83.63
2018-02-09T10:50:20.698Z,83.65
2018-02-09T10:52:48.984Z,83.58
2018-02-09T10:55:17.279Z,83.89
2018-02-09T10:57:45.605Z,83.94
2018-02-09T11:00:13.919Z,83.90
2018-02-09T11:02:42.999Z,84.04
2018-02-09T11:05:11.290Z,84.19
2018-02-09T11:07:40.354Z,84.47
2018-02-09T11:10:14.100Z,84.25
2018-02-09T11:12:43.157Z,84.69
2018-02-09T11:15:11.461Z,84.48
2018-02-09T11:17:39.775Z,84.18
2018-02-09T11:20:08.075Z,83.90
2018-02-09T11:22:36.373Z,84.11
2018-02-09T11:25:04.674Z,83.91
2018-02-09T11:27:32.951Z,83.96
2018-02-09T11:30:02.026Z,84.04
2018-02-09T11:32:30.320Z,84.03
2018-02-09T11:34:58.612Z,83.99
2018-02-09T11:37:27.680Z,83.95
2018-02-09T11:39:55.986Z,83.93
2018-02-09T11:42:25.088Z,83.93
2018-02-09T11:44:53.384Z,84.27
2018-02-09T11:47:21.672Z,84.28
2018-02-09T11:49:49.997Z,84.71
2018-02-09T11:52:18.271Z,84.46
2018-02-09T11:54:46.572Z,84.82
2018-02-09T11:57:15.656Z,84.59
2018-02-09T11:59:43.962Z,84.46
2018-02-09T12:02:12.345Z,84.08
2018-02-09T12:04:41.384Z,84.24
2018-02-09T12:07:09.672Z,84.56
2018-02-09T12:09:37.964Z,84.48
2018-02-09T12:12:06.251Z,84.28
2018-02-09T12:14:34.550Z,84.20
2018-02-09T12:17:02.859Z,84.00
2018-02-09T12:19:31.143Z,84.00
2018-02-09T12:21:59.425Z,84.19
2018-02-09T12:24:27.729Z,84.22
2018-02-09T12:26:56.290Z,84.42
2018-02-09T12:29:24.572Z,84.59
2018-02-09T12:31:52.862Z,84.64
2018-02-09T12:34:21.167Z,84.72
2018-02-09T12:36:49.452Z,84.47
2018-02-09T12:39:17.760Z,84.16
2018-02-09T12:41:46.028Z,84.10
2018-02-09T12:44:14.317Z,83.95
2018-02-09T12:46:42.641Z,83.93
2018-02-09T12:49:10.933Z,83.93
2018-02-09T12:51:40.037Z,84.07
2018-02-09T12:54:09.108Z,83.98
2018-02-09T12:56:37.390Z,83.66
2018-02-09T12:59:05.749Z,83.65
2018-02-09T13:01:34.060Z,83.44
2018-02-09T13:04:03.142Z,83.40
2018-02-09T13:06:31.443Z,83.25
2018-02-09T13:09:00.503Z,83.19
2018-02-09T13:11:28.811Z,83.18
2018-02-09T13:13:57.910Z,83.07
2018-02-09T13:16:26.332Z,83.02
2018-02-09T13:18:55.378Z,82.93
2018-02-09T13:21:24.312Z,82.78
2018-02-09T13:24:10.202Z,82.80
2018-02-09T13:26:38.542Z,82.85
2018-02-09T13:29:06.804Z,82.99
2018-02-09T13:31:35.143Z,82.46
2018-02-09T13:34:03.445Z,82.39
2018-02-09T13:39:56.315Z,82.18
2018-02-09T13:42:24.623Z,82.23
2018-02-09T13:44:52.977Z,82.20
2018-02-09T13:47:21.301Z,81.96
2018-02-09T13:49:49.609Z,82.20
2018-02-09T13:52:17.890Z,82.32
2018-02-09T13:54:46.268Z,82.06
2018-02-09T13:57:14.583Z,82.13
2018-02-09T13:59:43.294Z,82.36
2018-02-09T14:02:11.643Z,82.68
2018-02-09T14:04:39.950Z,82.86
2018-02-09T14:07:09.048Z,82.88
2018-02-09T14:09:38.159Z,82.61
2018-02-09T14:12:06.448Z,82.33
2018-02-09T14:14:34.837Z,82.28
2018-02-09T14:17:03.161Z,82.29
2018-02-09T14:19:31.472Z,82.21
2018-02-09T14:21:59.755Z,82.13
2018-02-09T14:24:31.487Z,82.26
2018-02-09T14:26:59.773Z,82.06
2018-02-09T14:29:28.864Z,82.08
2018-02-09T14:31:57.549Z,82.12
2018-02-09T14:34:25.959Z,82.27
2018-02-09T14:36:55.005Z,81.96
2018-02-09T14:39:23.309Z,81.75
2018-02-09T14:41:51.594Z,81.91
2018-02-09T14:44:20.696Z,82.00
2018-02-09T14:46:49.036Z,81.85
2018-02-09T14:49:17.305Z,82.05
2018-02-09T14:51:45.667Z,81.52
2018-02-09T14:54:13.903Z,81.45
2018-02-09T14:56:42.226Z,81.25
2018-02-09T14:59:10.525Z,81.23
2018-02-09T15:01:38.792Z,81.30
2018-02-09T15:04:07.114Z,81.38
2018-02-09T15:06:35.549Z,81.30
2018-02-09T15:09:03.848Z,81.54
2018-02-09T15:11:32.130Z,81.37
2018-02-09T15:14:00.429Z,81.78
2018-02-09T15:16:29.474Z,81.91
2018-02-09T15:18:57.762Z,81.79
2018-02-09T15:21:26.071Z,81.65
2018-02-09T15:23:54.363Z,82.11
2018-02-09T15:26:23.458Z,81.91
2018-02-09T15:28:51.817Z,81.90
2018-02-09T15:31:20.108Z,82.31
2018-02-09T15:33:48.411Z,82.43
2018-02-09T15:36:16.718Z,82.14
2018-02-09T15:38:45.019Z,81.90
2018-02-09T15:41:13.338Z,82.04
2018-02-09T15:43:42.416Z,82.09
2018-02-09T15:46:10.680Z,82.17
2018-02-09T15:48:40.706Z,81.92
2018-02-09T15:51:08.975Z,82.06
2018-02-09T15:53:37.293Z,81.83
2018-02-09T15:56:06.354Z,81.66
2018-02-09T15:58:34.635Z,81.88
2018-02-09T16:01:02.955Z,81.89
2018-02-09T16:03:31.243Z,82.01
2018-02-09T16:05:59.534Z,82.01
2018-02-09T16:08:27.842Z,82.36
2018-02-09T16:10:56.116Z,82.33
2018-02-09T16:13:24.419Z,82.21
2018-02-09T16:15:53.441Z,82.02
2018-02-09T16:18:21.756Z,82.36
2018-02-09T16:20:50.047Z,82.19
2018-02-09T16:23:18.328Z,82.40
2018-02-09T16:25:46.605Z,82.55
2018-02-09T16:28:14.895Z,82.57
2018-02-09T16:30:43.188Z,82.62
2018-02-09T16:33:12.273Z,82.58
2018-02-09T16:35:40.555Z,82.67
2018-02-09T16:38:08.856Z,83.01
2018-02-09T16:40:37.148Z,83.04
2018-02-09T16:43:05.439Z,83.31
2018-02-09T16:45:33.695Z,83.18
2018-02-09T16:48:02.005Z,83.00
2018-02-09T16:50:30.861Z,82.65
2018-02-09T16:52:59.126Z,82.61
2018-02-09T16:55:28.218Z,82.79
2018-02-09T16:57:56.484Z,83.01
2018-02-09T17:00:26.493Z,82.92
2018-02-09T17:02:54.802Z,83.43
2018-02-09T17:05:24.609Z,82.89
2018-02-09T17:07:52.889Z,82.98
2018-02-09T17:10:21.222Z,83.12
2018-02-09T17:12:49.537Z,83.21
2018-02-09T17:15:18.588Z,83.75
2018-02-09T17:17:46.859Z,83.47
2018-02-09T17:20:15.149Z,83.60
2018-02-09T17:22:43.434Z,83.47
2018-02-09T17:25:11.771Z,83.56
2018-02-09T17:27:40.053Z,83.72
2018-02-09T17:30:08.332Z,83.87
2018-02-09T17:32:36.630Z,84.22
2018-02-09T17:35:04.921Z,84.78
2018-02-09T17:37:33.232Z,84.79
2018-02-09T17:40:01.514Z,85.13
2018-02-09T17:42:29.793Z,85.16
2018-02-09T17:44:58.856Z,85.16
2018-02-09T17:47:27.165Z,84.84
2018-02-09T17:49:56.212Z,84.92
2018-02-09T17:52:24.469Z,85.00
2018-02-09T17:54:53.323Z,85.11
2018-02-09T17:57:21.628Z,85.04
2018-02-09T17:59:49.892Z,84.77
2018-02-09T18:02:18.953Z,84.61
2018-02-09T18:04:47.258Z,84.68
2018-02-09T18:07:15.569Z,84.46
2018-02-09T18:09:43.893Z,85.03
2018-02-09T18:12:12.194Z,84.79
2018-02-09T18:14:41.249Z,84.83
2018-02-09T18:17:09.536Z,84.99
2018-02-09T18:19:38.322Z,85.38
2018-02-09T18:22:06.681Z,85.42
2018-02-09T18:24:34.969Z,85.79
2018-02-09T18:27:03.315Z,85.85
2018-02-09T18:29:31.658Z,86.09
2018-02-09T18:32:00.841Z,86.33
2018-02-09T18:34:29.168Z,86.29
2018-02-09T18:36:57.667Z,86.55
2018-02-09T18:39:26.043Z,86.42
2018-02-09T18:41:54.378Z,86.67
2018-02-09T18:44:22.731Z,86.75
2018-02-09T18:46:51.073Z,86.93
2018-02-09T18:49:20.142Z,87.03
2018-02-09T18:51:49.225Z,86.98
2018-02-09T18:54:17.528Z,87.13
2018-02-09T18:56:45.846Z,87.23
2018-02-09T18:59:14.166Z,87.44
2018-02-09T19:01:42.477Z,87.21
2018-02-09T19:04:10.780Z,87.09
2018-02-09T19:06:39.052Z,87.41
2018-02-09T19:09:07.354Z,87.33
2018-02-09T19:11:35.697Z,87.50
2018-02-09T19:14:05.642Z,87.61
2018-02-09T19:16:33.995Z,87.68
2018-02-09T19:19:02.257Z,87.87
2018-02-09T19:21:30.570Z,88.03
2018-02-09T19:23:58.837Z,87.92
2018-02-09T19:26:31.165Z,88.08
2018-02-09T19:29:01.472Z,88.33
2018-02-09T19:31:29.791Z,88.17
2018-02-09T19:33:58.102Z,87.87
2018-02-09T19:36:26.375Z,87.88
2018-02-09T19:38:54.688Z,87.79
2018-02-09T19:41:22.964Z,87.61
2018-02-09T19:43:51.280Z,88.01
2018-02-09T19:46:20.375Z,88.26
2018-02-09T19:48:49.405Z,88.31
2018-02-09T19:51:17.707Z,88.40
2018-02-09T19:53:45.996Z,87.97
2018-02-09T19:56:14.303Z,87.41
2018-02-09T19:58:43.524Z,87.46
2018-02-09T20:01:12.082Z,87.44
2018-02-09T20:03:40.364Z,87.44
2018-02-09T20:06:08.688Z,87.28
2018-02-09T20:08:37.043Z,87.12
2018-02-09T20:11:05.369Z,86.95
2018-02-09T20:13:34.247Z,86.72
2018-02-09T20:16:02.567Z,86.33
2018-02-09T20:18:31.606Z,85.85
2018-02-09T20:20:59.899Z,85.69
2018-02-09T20:23:28.215Z,85.96
2018-02-09T20:25:56.559Z,86.40
2018-02-09T20:28:25.392Z,86.38
2018-02-09T20:30:53.698Z,86.46
2018-02-09T20:33:22.154Z,86.64
2018-02-09T20:35:51.300Z,86.63
2018-02-09T20:38:20.499Z,86.74
2018-02-09T20:40:48.786Z,86.65
2018-02-09T20:43:17.067Z,86.68
2018-02-09T20:45:45.373Z,86.67
2018-02-09T20:48:14.526Z,86.62
2018-02-09T20:50:42.811Z,86.72
2018-02-09T20:53:11.155Z,87.00
2018-02-09T20:55:39.451Z,86.98
2018-02-09T20:58:07.768Z,86.89
2018-02-09T21:00:36.141Z,86.66
2018-02-09T21:03:04.431Z,86.59
2018-02-09T21:05:32.810Z,86.28
2018-02-09T21:08:02.039Z,86.10
2018-02-09T21:10:30.373Z,86.20
2018-02-09T21:12:58.660Z,86.33
2018-02-09T21:15:28.102Z,86.57
2018-02-09T21:17:56.827Z,86.49
2018-02-09T21:20:25.200Z,86.51
2018-02-09T21:22:53.552Z,86.55
2018-02-09T21:25:22.146Z,86.61
2018-02-09T21:27:50.473Z,86.91
2018-02-09T21:30:18.868Z,86.73
2018-02-09T21:32:47.973Z,86.62
2018-02-09T21:35:17.165Z,86.62
2018-02-09T21:37:47.053Z,86.42
2018-02-09T21:40:18.032Z,86.23
2018-02-09T21:42:46.555Z,85.74
2018-02-09T21:45:14.914Z,85.68
2018-02-09T21:47:43.645Z,86.10
2018-02-09T21:50:11.984Z,86.32
2018-02-09T21:52:40.340Z,85.95
2018-02-09T21:55:09.104Z,86.19
2018-02-09T21:57:37.404Z,86.15
2018-02-09T22:00:05.882Z,85.60
2018-02-09T22:02:34.965Z,85.86
2018-02-09T22:05:03.712Z,86.19
2018-02-09T22:07:32.034Z,85.97
2018-02-09T22:10:00.342Z,86.18
2018-02-09T22:12:28.674Z,86.53
2018-02-09T22:14:57.086Z,86.65
2018-02-09T22:17:26.174Z,86.36
2018-02-09T22:19:54.488Z,86.11
2018-02-09T22:22:22.880Z,86.43
2018-02-09T22:24:51.262Z,86.78
2018-02-09T22:27:19.586Z,86.93
2018-02-09T22:29:47.901Z,87.01
2018-02-09T22:32:16.166Z,86.58
2018-02-09T22:34:44.568Z,86.54
2018-02-09T22:37:12.907Z,86.01
2018-02-09T22:39:41.226Z,86.29
2018-02-09T22:42:09.567Z,86.59
2018-02-09T22:44:38.685Z,86.58
2018-02-09T22:47:06.963Z,86.29
2018-02-09T22:49:35.319Z,86.46
2018-02-09T22:52:03.670Z,86.75
2018-02-09T22:54:32.564Z,87.13
2018-02-09T22:57:01.724Z,86.96
2018-02-09T22:59:30.079Z,86.49
2018-02-09T23:02:00.050Z,86.93
2018-02-09T23:04:28.401Z,87.06
2018-02-09T23:06:56.719Z,86.95
2018-02-09T23:09:25.025Z,87.00
2018-02-09T23:11:53.918Z,87.03
2018-02-09T23:14:23.040Z,87.13
2018-02-09T23:16:51.809Z,87.41
2018-02-09T23:19:21.165Z,87.37
2018-02-09T23:21:49.530Z,87.34
2018-02-09T23:24:17.857Z,87.27
2018-02-09T23:26:46.378Z,87.37
2018-02-09T23:29:14.721Z,87.42
2018-02-09T23:31:43.073Z,87.27
2018-02-09T23:34:11.348Z,87.13
2018-02-09T23:36:40.963Z,86.98
2018-02-09T23:39:10.576Z,87.00
2018-02-09T23:41:39.315Z,87.15
2018-02-09T23:44:07.641Z,87.33
2018-02-09T23:46:35.940Z,87.39
2018-02-09T23:49:04.404Z,87.50
2018-02-09T23:51:33.094Z,87.26
2018-02-09T23:54:01.387Z,86.86
2018-02-09T23:56:30.232Z,86.64
2018-02-09T23:58:58.504Z,87.00
